METAR Data
IDs: Format: Raw Decoded Include TAF

Data at: 0658 UTC 01 Aug 2021

KMQJ 010655Z AUTO 27003KT 7SM CLR 14/14 A2997 RMK AO1